sensor_id;sensor_type;location;lat;lon;timestamp;P1;durP1;ratioP1;P2;durP2;ratioP2
63018;SDS011;49105;46.046;10.760;2022-08-19T00:00:50;2.80;;;2.70;;
63018;SDS011;49105;46.046;10.760;2022-08-19T00:03:15;2.60;;;2.60;;
63018;SDS011;49105;46.046;10.760;2022-08-19T00:05:41;2.80;;;2.70;;
63018;SDS011;49105;46.046;10.760;2022-08-19T00:08:07;2.85;;;2.75;;
63018;SDS011;49105;46.046;10.760;2022-08-19T00:10:32;2.65;;;2.60;;
63018;SDS011;49105;46.046;10.760;2022-08-19T00:12:59;2.60;;;2.60;;
63018;SDS011;49105;46.046;10.760;2022-08-19T00:15:24;2.50;;;2.50;;
63018;SDS011;49105;46.046;10.760;2022-08-19T00:17:50;2.60;;;2.60;;
63018;SDS011;49105;46.046;10.760;2022-08-19T00:20:16;2.70;;;2.60;;
63018;SDS011;49105;46.046;10.760;2022-08-19T00:22:45;2.53;;;2.53;;
63018;SDS011;49105;46.046;10.760;2022-08-19T00:25:11;2.97;;;2.88;;
63018;SDS011;49105;46.046;10.760;2022-08-19T00:27:37;2.50;;;2.50;;
63018;SDS011;49105;46.046;10.760;2022-08-19T00:30:03;2.70;;;2.60;;
63018;SDS011;49105;46.046;10.760;2022-08-19T00:32:31;2.65;;;2.60;;
63018;SDS011;49105;46.046;10.760;2022-08-19T00:34:56;2.40;;;2.40;;
63018;SDS011;49105;46.046;10.760;2022-08-19T00:37:22;2.20;;;2.20;;
63018;SDS011;49105;46.046;10.760;2022-08-19T00:39:51;2.30;;;2.30;;
63018;SDS011;49105;46.046;10.760;2022-08-19T00:42:19;2.30;;;2.30;;
63018;SDS011;49105;46.046;10.760;2022-08-19T00:44:45;2.30;;;2.30;;
63018;SDS011;49105;46.046;10.760;2022-08-19T00:47:12;2.20;;;2.20;;
63018;SDS011;49105;46.046;10.760;2022-08-19T00:49:41;2.08;;;2.08;;
63018;SDS011;49105;46.046;10.760;2022-08-19T00:52:14;2.10;;;2.10;;
63018;SDS011;49105;46.046;10.760;2022-08-19T00:54:43;1.90;;;1.90;;
63018;SDS011;49105;46.046;10.760;2022-08-19T00:57:13;2.40;;;2.35;;
63018;SDS011;49105;46.046;10.760;2022-08-19T00:59:42;2.10;;;2.10;;
63018;SDS011;49105;46.046;10.760;2022-08-19T01:02:11;2.00;;;2.00;;
63018;SDS011;49105;46.046;10.760;2022-08-19T01:04:37;2.53;;;2.42;;
63018;SDS011;49105;46.046;10.760;2022-08-19T01:07:02;2.10;;;2.10;;
63018;SDS011;49105;46.046;10.760;2022-08-19T01:09:29;2.00;;;2.00;;
63018;SDS011;49105;46.046;10.760;2022-08-19T01:11:54;1.90;;;1.90;;
63018;SDS011;49105;46.046;10.760;2022-08-19T01:14:21;2.00;;;2.00;;
63018;SDS011;49105;46.046;10.760;2022-08-19T01:16:47;2.00;;;2.00;;
63018;SDS011;49105;46.046;10.760;2022-08-19T01:19:18;2.05;;;2.05;;
63018;SDS011;49105;46.046;10.760;2022-08-19T01:21:52;2.05;;;2.05;;
63018;SDS011;49105;46.046;10.760;2022-08-19T01:24:26;2.10;;;2.10;;
63018;SDS011;49105;46.046;10.760;2022-08-19T01:26:51;2.00;;;2.00;;
63018;SDS011;49105;46.046;10.760;2022-08-19T01:29:17;2.00;;;2.00;;
63018;SDS011;49105;46.046;10.760;2022-08-19T01:31:42;1.90;;;1.90;;
63018;SDS011;49105;46.046;10.760;2022-08-19T01:34:08;1.90;;;1.90;;
63018;SDS011;49105;46.046;10.760;2022-08-19T01:36:37;2.10;;;2.10;;
63018;SDS011;49105;46.046;10.760;2022-08-19T01:39:09;2.35;;;2.22;;
63018;SDS011;49105;46.046;10.760;2022-08-19T01:41:37;2.20;;;2.20;;
63018;SDS011;49105;46.046;10.760;2022-08-19T01:44:04;2.20;;;2.20;;
63018;SDS011;49105;46.046;10.760;2022-08-19T01:46:31;2.15;;;2.15;;
63018;SDS011;49105;46.046;10.760;2022-08-19T01:48:57;2.05;;;2.05;;
63018;SDS011;49105;46.046;10.760;2022-08-19T01:51:23;2.30;;;2.30;;
63018;SDS011;49105;46.046;10.760;2022-08-19T01:53:49;2.10;;;2.10;;
63018;SDS011;49105;46.046;10.760;2022-08-19T01:56:16;2.20;;;2.20;;
63018;SDS011;49105;46.046;10.760;2022-08-19T01:58:44;2.30;;;2.20;;
63018;SDS011;49105;46.046;10.760;2022-08-19T02:03:39;2.63;;;2.53;;
63018;SDS011;49105;46.046;10.760;2022-08-19T02:06:05;2.00;;;2.00;;
63018;SDS011;49105;46.046;10.760;2022-08-19T02:08:31;1.80;;;1.80;;
63018;SDS011;49105;46.046;10.760;2022-08-19T02:10:59;2.10;;;2.10;;
63018;SDS011;49105;46.046;10.760;2022-08-19T02:13:25;2.03;;;2.03;;
63018;SDS011;49105;46.046;10.760;2022-08-19T02:15:51;2.10;;;2.10;;
63018;SDS011;49105;46.046;10.760;2022-08-19T02:18:17;2.20;;;2.20;;
63018;SDS011;49105;46.046;10.760;2022-08-19T02:20:42;2.10;;;2.10;;
63018;SDS011;49105;46.046;10.760;2022-08-19T02:23:09;2.00;;;2.00;;
63018;SDS011;49105;46.046;10.760;2022-08-19T02:25:37;2.10;;;2.10;;
63018;SDS011;49105;46.046;10.760;2022-08-19T02:28:03;2.13;;;2.10;;
63018;SDS011;49105;46.046;10.760;2022-08-19T02:30:29;2.00;;;2.00;;
63018;SDS011;49105;46.046;10.760;2022-08-19T02:32:54;2.00;;;2.00;;
63018;SDS011;49105;46.046;10.760;2022-08-19T02:35:20;2.00;;;2.00;;
63018;SDS011;49105;46.046;10.760;2022-08-19T02:37:46;2.33;;;2.30;;
63018;SDS011;49105;46.046;10.760;2022-08-19T02:40:30;2.25;;;2.25;;
63018;SDS011;49105;46.046;10.760;2022-08-19T02:42:59;2.10;;;2.10;;
63018;SDS011;49105;46.046;10.760;2022-08-19T02:45:32;2.00;;;2.00;;
63018;SDS011;49105;46.046;10.760;2022-08-19T02:47:59;1.90;;;1.90;;
63018;SDS011;49105;46.046;10.760;2022-08-19T02:50:25;2.08;;;2.08;;
63018;SDS011;49105;46.046;10.760;2022-08-19T02:52:50;2.00;;;2.00;;
63018;SDS011;49105;46.046;10.760;2022-08-19T02:55:16;2.00;;;2.00;;
63018;SDS011;49105;46.046;10.760;2022-08-19T02:57:41;1.90;;;1.90;;
63018;SDS011;49105;46.046;10.760;2022-08-19T03:00:07;2.53;;;2.33;;
63018;SDS011;49105;46.046;10.760;2022-08-19T03:02:37;1.90;;;1.90;;
63018;SDS011;49105;46.046;10.760;2022-08-19T03:05:03;2.30;;;2.20;;
63018;SDS011;49105;46.046;10.760;2022-08-19T03:07:32;2.05;;;2.00;;
63018;SDS011;49105;46.046;10.760;2022-08-19T03:09:57;1.85;;;1.85;;
63018;SDS011;49105;46.046;10.760;2022-08-19T03:12:23;1.80;;;1.80;;
63018;SDS011;49105;46.046;10.760;2022-08-19T03:14:49;1.90;;;1.90;;
63018;SDS011;49105;46.046;10.760;2022-08-19T03:17:14;1.90;;;1.90;;
63018;SDS011;49105;46.046;10.760;2022-08-19T03:19:40;1.83;;;1.83;;
63018;SDS011;49105;46.046;10.760;2022-08-19T03:22:05;1.90;;;1.90;;
63018;SDS011;49105;46.046;10.760;2022-08-19T03:24:31;2.15;;;2.10;;
63018;SDS011;49105;46.046;10.760;2022-08-19T03:26:57;2.00;;;2.00;;
63018;SDS011;49105;46.046;10.760;2022-08-19T03:29:24;2.17;;;2.10;;
63018;SDS011;49105;46.046;10.760;2022-08-19T03:31:52;1.90;;;1.90;;
63018;SDS011;49105;46.046;10.760;2022-08-19T03:34:22;2.10;;;2.10;;
63018;SDS011;49105;46.046;10.760;2022-08-19T03:36:52;2.58;;;2.47;;
63018;SDS011;49105;46.046;10.760;2022-08-19T03:39:20;2.00;;;2.00;;
63018;SDS011;49105;46.046;10.760;2022-08-19T03:41:48;2.10;;;2.10;;
63018;SDS011;49105;46.046;10.760;2022-08-19T03:44:16;2.05;;;2.05;;
63018;SDS011;49105;46.046;10.760;2022-08-19T03:46:46;2.20;;;2.20;;
63018;SDS011;49105;46.046;10.760;2022-08-19T03:49:13;2.25;;;2.25;;
63018;SDS011;49105;46.046;10.760;2022-08-19T03:51:39;2.10;;;2.10;;
63018;SDS011;49105;46.046;10.760;2022-08-19T03:54:07;2.92;;;2.72;;
63018;SDS011;49105;46.046;10.760;2022-08-19T03:56:35;2.10;;;2.10;;
63018;SDS011;49105;46.046;10.760;2022-08-19T03:59:02;2.15;;;2.15;;
63018;SDS011;49105;46.046;10.760;2022-08-19T04:01:28;2.50;;;2.40;;
63018;SDS011;49105;46.046;10.760;2022-08-19T04:03:55;2.20;;;2.20;;
63018;SDS011;49105;46.046;10.760;2022-08-19T04:06:22;2.00;;;2.00;;
63018;SDS011;49105;46.046;10.760;2022-08-19T04:08:50;1.90;;;1.90;;
63018;SDS011;49105;46.046;10.760;2022-08-19T04:11:20;2.10;;;2.10;;
63018;SDS011;49105;46.046;10.760;2022-08-19T04:13:47;2.20;;;2.20;;
63018;SDS011;49105;46.046;10.760;2022-08-19T04:16:14;1.90;;;1.90;;
63018;SDS011;49105;46.046;10.760;2022-08-19T04:18:40;1.90;;;1.90;;
63018;SDS011;49105;46.046;10.760;2022-08-19T04:21:06;2.10;;;2.10;;
63018;SDS011;49105;46.046;10.760;2022-08-19T04:23:33;2.20;;;2.20;;
63018;SDS011;49105;46.046;10.760;2022-08-19T04:26:01;2.00;;;2.00;;
63018;SDS011;49105;46.046;10.760;2022-08-19T04:28:27;1.92;;;1.92;;
63018;SDS011;49105;46.046;10.760;2022-08-19T04:30:54;1.80;;;1.80;;
63018;SDS011;49105;46.046;10.760;2022-08-19T04:33:23;1.90;;;1.90;;
63018;SDS011;49105;46.046;10.760;2022-08-19T04:35:50;2.00;;;2.00;;
63018;SDS011;49105;46.046;10.760;2022-08-19T04:38:19;1.80;;;1.80;;
63018;SDS011;49105;46.046;10.760;2022-08-19T04:40:48;1.80;;;1.80;;
63018;SDS011;49105;46.046;10.760;2022-08-19T04:43:33;1.90;;;1.90;;
63018;SDS011;49105;46.046;10.760;2022-08-19T04:46:04;2.00;;;2.00;;
63018;SDS011;49105;46.046;10.760;2022-08-19T04:48:33;1.80;;;1.80;;
63018;SDS011;49105;46.046;10.760;2022-08-19T04:50:59;2.00;;;2.00;;
63018;SDS011;49105;46.046;10.760;2022-08-19T04:53:28;2.00;;;2.00;;
63018;SDS011;49105;46.046;10.760;2022-08-19T04:55:55;3.85;;;2.10;;
63018;SDS011;49105;46.046;10.760;2022-08-19T04:58:22;1.90;;;1.90;;
63018;SDS011;49105;46.046;10.760;2022-08-19T05:00:49;2.03;;;2.03;;
63018;SDS011;49105;46.046;10.760;2022-08-19T05:03:14;1.90;;;1.90;;
63018;SDS011;49105;46.046;10.760;2022-08-19T05:05:42;1.90;;;1.90;;
63018;SDS011;49105;46.046;10.760;2022-08-19T05:08:08;1.80;;;1.80;;
63018;SDS011;49105;46.046;10.760;2022-08-19T05:10:35;1.80;;;1.80;;
63018;SDS011;49105;46.046;10.760;2022-08-19T05:13:01;1.70;;;1.70;;
63018;SDS011;49105;46.046;10.760;2022-08-19T05:15:27;1.80;;;1.80;;
63018;SDS011;49105;46.046;10.760;2022-08-19T05:17:52;1.67;;;1.67;;
63018;SDS011;49105;46.046;10.760;2022-08-19T05:20:37;1.80;;;1.80;;
63018;SDS011;49105;46.046;10.760;2022-08-19T05:23:21;4.93;;;2.53;;
63018;SDS011;49105;46.046;10.760;2022-08-19T05:25:47;1.70;;;1.70;;
63018;SDS011;49105;46.046;10.760;2022-08-19T05:28:12;1.60;;;1.60;;
63018;SDS011;49105;46.046;10.760;2022-08-19T05:30:38;1.60;;;1.60;;
63018;SDS011;49105;46.046;10.760;2022-08-19T05:33:05;1.60;;;1.60;;
63018;SDS011;49105;46.046;10.760;2022-08-19T05:35:35;1.50;;;1.50;;
63018;SDS011;49105;46.046;10.760;2022-08-19T05:38:02;1.60;;;1.60;;
63018;SDS011;49105;46.046;10.760;2022-08-19T05:40:27;1.60;;;1.60;;
63018;SDS011;49105;46.046;10.760;2022-08-19T05:42:53;1.70;;;1.70;;
63018;SDS011;49105;46.046;10.760;2022-08-19T05:45:19;1.50;;;1.50;;
63018;SDS011;49105;46.046;10.760;2022-08-19T05:47:45;2.22;;;2.03;;
63018;SDS011;49105;46.046;10.760;2022-08-19T05:50:11;1.70;;;1.70;;
63018;SDS011;49105;46.046;10.760;2022-08-19T05:52:37;1.50;;;1.50;;
63018;SDS011;49105;46.046;10.760;2022-08-19T05:55:03;1.60;;;1.60;;
63018;SDS011;49105;46.046;10.760;2022-08-19T05:57:30;1.50;;;1.50;;
63018;SDS011;49105;46.046;10.760;2022-08-19T05:59:55;1.42;;;1.42;;
63018;SDS011;49105;46.046;10.760;2022-08-19T06:02:22;1.50;;;1.50;;
63018;SDS011;49105;46.046;10.760;2022-08-19T06:04:47;1.30;;;1.30;;
63018;SDS011;49105;46.046;10.760;2022-08-19T06:07:14;1.60;;;1.60;;
63018;SDS011;49105;46.046;10.760;2022-08-19T06:09:40;1.50;;;1.50;;
63018;SDS011;49105;46.046;10.760;2022-08-19T06:12:06;1.40;;;1.40;;
63018;SDS011;49105;46.046;10.760;2022-08-19T06:14:32;1.30;;;1.30;;
63018;SDS011;49105;46.046;10.760;2022-08-19T06:16:59;1.30;;;1.30;;
63018;SDS011;49105;46.046;10.760;2022-08-19T06:19:27;1.30;;;1.30;;
63018;SDS011;49105;46.046;10.760;2022-08-19T06:21:56;1.20;;;1.20;;
63018;SDS011;49105;46.046;10.760;2022-08-19T06:24:24;1.17;;;1.17;;
63018;SDS011;49105;46.046;10.760;2022-08-19T06:26:51;1.30;;;1.30;;
63018;SDS011;49105;46.046;10.760;2022-08-19T06:29:20;1.30;;;1.30;;
63018;SDS011;49105;46.046;10.760;2022-08-19T06:31:47;1.30;;;1.30;;
63018;SDS011;49105;46.046;10.760;2022-08-19T06:34:14;1.10;;;1.10;;
63018;SDS011;49105;46.046;10.760;2022-08-19T06:36:42;1.25;;;1.25;;
63018;SDS011;49105;46.046;10.760;2022-08-19T06:39:12;1.40;;;1.40;;
63018;SDS011;49105;46.046;10.760;2022-08-19T06:41:41;1.50;;;1.50;;
63018;SDS011;49105;46.046;10.760;2022-08-19T06:44:11;1.30;;;1.30;;
63018;SDS011;49105;46.046;10.760;2022-08-19T06:46:38;1.20;;;1.20;;
63018;SDS011;49105;46.046;10.760;2022-08-19T06:49:04;1.33;;;1.33;;
63018;SDS011;49105;46.046;10.760;2022-08-19T06:51:31;1.27;;;1.27;;
63018;SDS011;49105;46.046;10.760;2022-08-19T06:53:57;1.30;;;1.30;;
63018;SDS011;49105;46.046;10.760;2022-08-19T06:56:24;1.30;;;1.30;;
63018;SDS011;49105;46.046;10.760;2022-08-19T06:59:07;1.30;;;1.30;;
63018;SDS011;49105;46.046;10.760;2022-08-19T07:01:35;1.30;;;1.30;;
63018;SDS011;49105;46.046;10.760;2022-08-19T07:04:08;1.10;;;1.10;;
63018;SDS011;49105;46.046;10.760;2022-08-19T07:06:35;1.50;;;1.50;;
63018;SDS011;49105;46.046;10.760;2022-08-19T07:09:01;1.30;;;1.30;;
63018;SDS011;49105;46.046;10.760;2022-08-19T07:11:28;1.30;;;1.30;;
63018;SDS011;49105;46.046;10.760;2022-08-19T07:13:53;1.40;;;1.40;;
63018;SDS011;49105;46.046;10.760;2022-08-19T07:16:20;1.30;;;1.30;;
63018;SDS011;49105;46.046;10.760;2022-08-19T07:18:47;1.50;;;1.50;;
63018;SDS011;49105;46.046;10.760;2022-08-19T07:21:18;1.40;;;1.40;;
63018;SDS011;49105;46.046;10.760;2022-08-19T07:23:49;1.40;;;1.40;;
63018;SDS011;49105;46.046;10.760;2022-08-19T07:26:16;1.58;;;1.58;;
63018;SDS011;49105;46.046;10.760;2022-08-19T07:28:54;1.60;;;1.60;;
63018;SDS011;49105;46.046;10.760;2022-08-19T07:31:21;1.60;;;1.60;;
63018;SDS011;49105;46.046;10.760;2022-08-19T07:33:49;1.40;;;1.40;;
63018;SDS011;49105;46.046;10.760;2022-08-19T07:36:17;1.75;;;1.75;;
63018;SDS011;49105;46.046;10.760;2022-08-19T07:38:46;2.08;;;1.98;;
63018;SDS011;49105;46.046;10.760;2022-08-19T07:41:15;1.42;;;1.42;;
63018;SDS011;49105;46.046;10.760;2022-08-19T07:43:43;1.30;;;1.30;;
63018;SDS011;49105;46.046;10.760;2022-08-19T07:46:10;1.40;;;1.40;;
63018;SDS011;49105;46.046;10.760;2022-08-19T07:48:38;1.38;;;1.38;;
63018;SDS011;49105;46.046;10.760;2022-08-19T07:51:06;1.33;;;1.33;;
63018;SDS011;49105;46.046;10.760;2022-08-19T07:53:33;1.40;;;1.40;;
63018;SDS011;49105;46.046;10.760;2022-08-19T07:55:59;1.40;;;1.40;;
63018;SDS011;49105;46.046;10.760;2022-08-19T07:58:29;1.30;;;1.30;;
63018;SDS011;49105;46.046;10.760;2022-08-19T08:00:56;1.20;;;1.20;;
63018;SDS011;49105;46.046;10.760;2022-08-19T08:03:22;1.30;;;1.30;;
63018;SDS011;49105;46.046;10.760;2022-08-19T08:06:11;1.30;;;1.30;;
63018;SDS011;49105;46.046;10.760;2022-08-19T08:08:57;1.40;;;1.40;;
63018;SDS011;49105;46.046;10.760;2022-08-19T08:11:36;1.40;;;1.40;;
63018;SDS011;49105;46.046;10.760;2022-08-19T08:14:02;1.80;;;1.70;;
63018;SDS011;49105;46.046;10.760;2022-08-19T08:16:30;1.30;;;1.30;;
63018;SDS011;49105;46.046;10.760;2022-08-19T08:18:59;1.40;;;1.40;;
63018;SDS011;49105;46.046;10.760;2022-08-19T08:21:25;1.40;;;1.40;;
63018;SDS011;49105;46.046;10.760;2022-08-19T08:23:50;1.40;;;1.40;;
63018;SDS011;49105;46.046;10.760;2022-08-19T08:26:18;1.27;;;1.27;;
63018;SDS011;49105;46.046;10.760;2022-08-19T08:28:43;1.40;;;1.40;;
63018;SDS011;49105;46.046;10.760;2022-08-19T08:31:09;1.40;;;1.40;;
63018;SDS011;49105;46.046;10.760;2022-08-19T08:33:35;1.30;;;1.30;;
63018;SDS011;49105;46.046;10.760;2022-08-19T08:36:01;1.50;;;1.50;;
63018;SDS011;49105;46.046;10.760;2022-08-19T08:38:30;1.40;;;1.40;;
63018;SDS011;49105;46.046;10.760;2022-08-19T08:40:58;1.50;;;1.50;;
63018;SDS011;49105;46.046;10.760;2022-08-19T08:43:38;1.40;;;1.40;;
63018;SDS011;49105;46.046;10.760;2022-08-19T08:46:10;1.48;;;1.48;;
63018;SDS011;49105;46.046;10.760;2022-08-19T08:51:24;1.52;;;1.52;;
63018;SDS011;49105;46.046;10.760;2022-08-19T08:53:53;1.40;;;1.40;;
63018;SDS011;49105;46.046;10.760;2022-08-19T08:56:20;1.52;;;1.52;;
63018;SDS011;49105;46.046;10.760;2022-08-19T09:01:24;1.30;;;1.30;;
63018;SDS011;49105;46.046;10.760;2022-08-19T09:03:50;1.50;;;1.50;;
63018;SDS011;49105;46.046;10.760;2022-08-19T09:06:29;1.38;;;1.38;;
63018;SDS011;49105;46.046;10.760;2022-08-19T09:11:44;1.35;;;1.35;;
63018;SDS011;49105;46.046;10.760;2022-08-19T09:17:20;1.40;;;1.40;;
63018;SDS011;49105;46.046;10.760;2022-08-19T09:22:40;1.42;;;1.42;;
63018;SDS011;49105;46.046;10.760;2022-08-19T09:25:09;1.40;;;1.40;;
63018;SDS011;49105;46.046;10.760;2022-08-19T09:27:37;1.40;;;1.40;;
63018;SDS011;49105;46.046;10.760;2022-08-19T09:30:04;1.30;;;1.30;;
63018;SDS011;49105;46.046;10.760;2022-08-19T09:32:32;1.58;;;1.58;;
63018;SDS011;49105;46.046;10.760;2022-08-19T09:34:58;1.40;;;1.40;;
63018;SDS011;49105;46.046;10.760;2022-08-19T09:37:25;1.30;;;1.30;;
63018;SDS011;49105;46.046;10.760;2022-08-19T09:39:51;1.30;;;1.30;;
63018;SDS011;49105;46.046;10.760;2022-08-19T09:42:17;1.40;;;1.40;;
63018;SDS011;49105;46.046;10.760;2022-08-19T09:44:43;1.30;;;1.30;;
63018;SDS011;49105;46.046;10.760;2022-08-19T09:47:09;1.30;;;1.30;;
63018;SDS011;49105;46.046;10.760;2022-08-19T09:49:36;1.20;;;1.20;;
63018;SDS011;49105;46.046;10.760;2022-08-19T09:52:04;1.20;;;1.20;;
63018;SDS011;49105;46.046;10.760;2022-08-19T09:54:31;1.30;;;1.30;;
63018;SDS011;49105;46.046;10.760;2022-08-19T09:56:57;1.20;;;1.20;;
63018;SDS011;49105;46.046;10.760;2022-08-19T09:59:25;1.20;;;1.20;;
63018;SDS011;49105;46.046;10.760;2022-08-19T10:01:51;1.20;;;1.20;;
63018;SDS011;49105;46.046;10.760;2022-08-19T10:04:16;1.10;;;1.10;;
63018;SDS011;49105;46.046;10.760;2022-08-19T10:06:42;1.10;;;1.10;;
63018;SDS011;49105;46.046;10.760;2022-08-19T10:09:08;1.35;;;1.35;;
63018;SDS011;49105;46.046;10.760;2022-08-19T10:11:35;1.30;;;1.30;;
63018;SDS011;49105;46.046;10.760;2022-08-19T10:14:04;1.95;;;1.27;;
63018;SDS011;49105;46.046;10.760;2022-08-19T10:16:33;1.10;;;1.10;;
63018;SDS011;49105;46.046;10.760;2022-08-19T10:19:00;1.17;;;1.17;;
63018;SDS011;49105;46.046;10.760;2022-08-19T10:21:28;1.10;;;1.10;;
63018;SDS011;49105;46.046;10.760;2022-08-19T10:23:55;1.30;;;1.30;;
63018;SDS011;49105;46.046;10.760;2022-08-19T10:26:27;1.50;;;1.40;;
63018;SDS011;49105;46.046;10.760;2022-08-19T10:28:55;1.20;;;1.20;;
63018;SDS011;49105;46.046;10.760;2022-08-19T10:31:23;1.10;;;1.10;;
63018;SDS011;49105;46.046;10.760;2022-08-19T10:33:52;1.10;;;1.10;;
63018;SDS011;49105;46.046;10.760;2022-08-19T10:36:22;1.30;;;1.30;;
63018;SDS011;49105;46.046;10.760;2022-08-19T10:38:50;1.30;;;1.30;;
63018;SDS011;49105;46.046;10.760;2022-08-19T10:41:21;1.40;;;1.40;;
63018;SDS011;49105;46.046;10.760;2022-08-19T10:43:52;1.40;;;1.40;;
63018;SDS011;49105;46.046;10.760;2022-08-19T10:46:19;1.30;;;1.30;;
63018;SDS011;49105;46.046;10.760;2022-08-19T10:48:47;1.40;;;1.40;;
63018;SDS011;49105;46.046;10.760;2022-08-19T10:51:13;1.23;;;1.23;;
63018;SDS011;49105;46.046;10.760;2022-08-19T10:53:57;1.27;;;1.27;;
63018;SDS011;49105;46.046;10.760;2022-08-19T10:56:23;1.30;;;1.30;;
63018;SDS011;49105;46.046;10.760;2022-08-19T10:59:08;1.40;;;1.30;;
63018;SDS011;49105;46.046;10.760;2022-08-19T11:01:34;1.50;;;1.50;;
63018;SDS011;49105;46.046;10.760;2022-08-19T11:04:03;1.40;;;1.40;;
63018;SDS011;49105;46.046;10.760;2022-08-19T11:06:31;1.30;;;1.30;;
63018;SDS011;49105;46.046;10.760;2022-08-19T11:08:57;1.52;;;1.52;;
63018;SDS011;49105;46.046;10.760;2022-08-19T11:11:25;1.30;;;1.30;;
63018;SDS011;49105;46.046;10.760;2022-08-19T11:13:51;1.20;;;1.20;;
63018;SDS011;49105;46.046;10.760;2022-08-19T11:16:21;1.30;;;1.30;;
63018;SDS011;49105;46.046;10.760;2022-08-19T11:18:51;1.30;;;1.30;;
63018;SDS011;49105;46.046;10.760;2022-08-19T11:21:24;1.30;;;1.30;;
63018;SDS011;49105;46.046;10.760;2022-08-19T11:23:59;1.40;;;1.40;;
63018;SDS011;49105;46.046;10.760;2022-08-19T11:26:27;1.30;;;1.30;;
63018;SDS011;49105;46.046;10.760;2022-08-19T11:28:54;1.23;;;1.23;;
63018;SDS011;49105;46.046;10.760;2022-08-19T11:31:23;1.35;;;1.35;;
63018;SDS011;49105;46.046;10.760;2022-08-19T11:33:50;1.20;;;1.20;;
63018;SDS011;49105;46.046;10.760;2022-08-19T11:36:16;1.30;;;1.30;;
63018;SDS011;49105;46.046;10.760;2022-08-19T11:38:43;2.08;;;1.50;;
63018;SDS011;49105;46.046;10.760;2022-08-19T11:41:09;1.40;;;1.40;;
63018;SDS011;49105;46.046;10.760;2022-08-19T11:43:35;1.38;;;1.38;;
63018;SDS011;49105;46.046;10.760;2022-08-19T11:46:05;1.30;;;1.30;;
63018;SDS011;49105;46.046;10.760;2022-08-19T11:48:35;1.30;;;1.30;;
63018;SDS011;49105;46.046;10.760;2022-08-19T11:51:06;1.60;;;1.50;;
63018;SDS011;49105;46.046;10.760;2022-08-19T11:53:36;1.50;;;1.50;;
63018;SDS011;49105;46.046;10.760;2022-08-19T11:56:03;1.40;;;1.40;;
63018;SDS011;49105;46.046;10.760;2022-08-19T11:58:29;1.40;;;1.40;;
63018;SDS011;49105;46.046;10.760;2022-08-19T12:00:55;1.40;;;1.40;;
63018;SDS011;49105;46.046;10.760;2022-08-19T12:03:21;1.40;;;1.40;;
63018;SDS011;49105;46.046;10.760;2022-08-19T12:05:47;1.40;;;1.40;;
63018;SDS011;49105;46.046;10.760;2022-08-19T12:08:13;1.20;;;1.20;;
63018;SDS011;49105;46.046;10.760;2022-08-19T12:10:39;1.30;;;1.30;;
63018;SDS011;49105;46.046;10.760;2022-08-19T12:13:07;1.40;;;1.40;;
63018;SDS011;49105;46.046;10.760;2022-08-19T12:15:36;1.30;;;1.30;;
63018;SDS011;49105;46.046;10.760;2022-08-19T12:18:04;1.30;;;1.30;;
63018;SDS011;49105;46.046;10.760;2022-08-19T12:20:29;1.30;;;1.30;;
63018;SDS011;49105;46.046;10.760;2022-08-19T12:22:55;1.40;;;1.40;;
63018;SDS011;49105;46.046;10.760;2022-08-19T12:25:20;1.20;;;1.20;;
63018;SDS011;49105;46.046;10.760;2022-08-19T12:27:46;1.30;;;1.30;;
63018;SDS011;49105;46.046;10.760;2022-08-19T12:30:12;1.30;;;1.30;;
63018;SDS011;49105;46.046;10.760;2022-08-19T12:32:39;2.05;;;1.40;;
63018;SDS011;49105;46.046;10.760;2022-08-19T12:35:05;1.50;;;1.40;;
63018;SDS011;49105;46.046;10.760;2022-08-19T12:37:32;1.20;;;1.20;;
63018;SDS011;49105;46.046;10.760;2022-08-19T12:39:57;1.20;;;1.20;;
63018;SDS011;49105;46.046;10.760;2022-08-19T12:42:23;1.30;;;1.30;;
63018;SDS011;49105;46.046;10.760;2022-08-19T12:44:49;1.20;;;1.20;;
63018;SDS011;49105;46.046;10.760;2022-08-19T12:47:16;1.25;;;1.25;;
63018;SDS011;49105;46.046;10.760;2022-08-19T12:49:42;1.50;;;1.50;;
63018;SDS011;49105;46.046;10.760;2022-08-19T12:52:09;1.30;;;1.30;;
63018;SDS011;49105;46.046;10.760;2022-08-19T12:54:35;1.48;;;1.48;;
63018;SDS011;49105;46.046;10.760;2022-08-19T12:57:05;1.30;;;1.30;;
63018;SDS011;49105;46.046;10.760;2022-08-19T12:59:33;1.33;;;1.33;;
63018;SDS011;49105;46.046;10.760;2022-08-19T13:01:59;1.30;;;1.30;;
63018;SDS011;49105;46.046;10.760;2022-08-19T13:04:25;1.83;;;1.83;;
63018;SDS011;49105;46.046;10.760;2022-08-19T13:06:50;1.40;;;1.40;;
63018;SDS011;49105;46.046;10.760;2022-08-19T13:09:16;1.30;;;1.30;;
63018;SDS011;49105;46.046;10.760;2022-08-19T13:11:41;1.40;;;1.40;;
63018;SDS011;49105;46.046;10.760;2022-08-19T13:14:08;1.50;;;1.50;;
63018;SDS011;49105;46.046;10.760;2022-08-19T13:16:36;1.30;;;1.30;;
63018;SDS011;49105;46.046;10.760;2022-08-19T13:19:02;1.30;;;1.30;;
63018;SDS011;49105;46.046;10.760;2022-08-19T13:21:30;1.30;;;1.30;;
63018;SDS011;49105;46.046;10.760;2022-08-19T13:23:56;1.33;;;1.33;;
63018;SDS011;49105;46.046;10.760;2022-08-19T13:26:22;1.30;;;1.30;;
63018;SDS011;49105;46.046;10.760;2022-08-19T13:28:48;1.38;;;1.38;;
63018;SDS011;49105;46.046;10.760;2022-08-19T13:31:33;1.30;;;1.30;;
63018;SDS011;49105;46.046;10.760;2022-08-19T13:34:18;1.25;;;1.25;;
63018;SDS011;49105;46.046;10.760;2022-08-19T13:36:51;1.30;;;1.30;;
63018;SDS011;49105;46.046;10.760;2022-08-19T13:39:17;1.30;;;1.30;;
63018;SDS011;49105;46.046;10.760;2022-08-19T13:41:43;1.20;;;1.20;;
63018;SDS011;49105;46.046;10.760;2022-08-19T13:44:13;1.27;;;1.27;;
63018;SDS011;49105;46.046;10.760;2022-08-19T13:46:39;1.98;;;1.88;;
63018;SDS011;49105;46.046;10.760;2022-08-19T13:49:05;1.30;;;1.30;;
63018;SDS011;49105;46.046;10.760;2022-08-19T13:51:30;1.45;;;1.45;;
63018;SDS011;49105;46.046;10.760;2022-08-19T13:53:56;1.20;;;1.20;;
63018;SDS011;49105;46.046;10.760;2022-08-19T13:56:21;1.33;;;1.33;;
63018;SDS011;49105;46.046;10.760;2022-08-19T13:58:47;1.25;;;1.25;;
63018;SDS011;49105;46.046;10.760;2022-08-19T14:01:12;1.48;;;1.48;;
63018;SDS011;49105;46.046;10.760;2022-08-19T14:03:44;1.23;;;1.23;;
63018;SDS011;49105;46.046;10.760;2022-08-19T14:06:10;1.20;;;1.20;;
63018;SDS011;49105;46.046;10.760;2022-08-19T14:08:35;1.23;;;1.23;;
63018;SDS011;49105;46.046;10.760;2022-08-19T14:11:04;1.48;;;1.48;;
63018;SDS011;49105;46.046;10.760;2022-08-19T14:13:30;1.40;;;1.40;;
63018;SDS011;49105;46.046;10.760;2022-08-19T14:15:58;1.20;;;1.20;;
63018;SDS011;49105;46.046;10.760;2022-08-19T14:18:23;1.30;;;1.30;;
63018;SDS011;49105;46.046;10.760;2022-08-19T14:20:50;1.50;;;1.50;;
63018;SDS011;49105;46.046;10.760;2022-08-19T14:23:15;1.90;;;1.90;;
63018;SDS011;49105;46.046;10.760;2022-08-19T14:25:41;2.53;;;2.53;;
63018;SDS011;49105;46.046;10.760;2022-08-19T14:28:07;3.30;;;3.20;;
63018;SDS011;49105;46.046;10.760;2022-08-19T14:30:33;4.00;;;3.90;;
63018;SDS011;49105;46.046;10.760;2022-08-19T14:33:02;6.18;;;5.80;;
63018;SDS011;49105;46.046;10.760;2022-08-19T14:35:29;8.32;;;7.90;;
63018;SDS011;49105;46.046;10.760;2022-08-19T14:37:59;7.75;;;7.45;;
63018;SDS011;49105;46.046;10.760;2022-08-19T14:40:26;7.15;;;6.95;;
63018;SDS011;49105;46.046;10.760;2022-08-19T14:42:53;6.68;;;6.47;;
63018;SDS011;49105;46.046;10.760;2022-08-19T14:45:24;6.95;;;6.65;;
63018;SDS011;49105;46.046;10.760;2022-08-19T14:47:51;6.47;;;6.28;;
63018;SDS011;49105;46.046;10.760;2022-08-19T14:50:17;6.85;;;6.65;;
63018;SDS011;49105;46.046;10.760;2022-08-19T14:52:43;6.20;;;6.00;;